createdAt,value
2023-05-23T00:00:01.600Z,11.94
2023-05-23T00:01:01.520Z,11.94
2023-05-23T00:02:01.552Z,11.95
2023-05-23T00:03:01.704Z,11.95
2023-05-23T00:04:01.741Z,11.99
2023-05-23T00:05:01.571Z,11.99
2023-05-23T00:06:01.593Z,11.90
2023-05-23T00:07:01.599Z,11.90
2023-05-23T00:08:01.610Z,11.90
2023-05-23T00:09:01.673Z,11.75
2023-05-23T00:10:01.689Z,11.70
2023-05-23T00:11:01.664Z,11.67
2023-05-23T00:12:01.671Z,11.62
2023-05-23T00:13:01.679Z,11.52
2023-05-23T00:14:01.697Z,11.51
2023-05-23T00:15:01.715Z,11.54
2023-05-23T00:16:01.729Z,11.54
2023-05-23T00:17:01.858Z,11.58
2023-05-23T00:18:01.773Z,11.51
2023-05-23T00:19:01.959Z,11.49
2023-05-23T00:20:01.771Z,11.47
2023-05-23T00:21:01.787Z,11.47
2023-05-23T00:22:01.806Z,11.51
2023-05-23T00:23:01.813Z,11.57
2023-05-23T00:24:01.828Z,11.57
2023-05-23T00:25:01.847Z,11.57
2023-05-23T00:26:01.851Z,11.55
2023-05-23T00:27:01.867Z,11.57
2023-05-23T00:28:01.880Z,11.57
2023-05-23T00:29:01.898Z,11.54
2023-05-23T00:30:01.906Z,11.54
2023-05-23T00:31:01.927Z,11.47
2023-05-23T00:32:01.953Z,11.51
2023-05-23T00:33:01.990Z,11.52
2023-05-23T00:34:01.957Z,11.46
2023-05-23T00:35:02.106Z,11.46
2023-05-23T00:36:01.986Z,11.47
2023-05-23T00:37:02.001Z,11.51
2023-05-23T00:38:02.012Z,11.52
2023-05-23T00:39:02.041Z,11.44
2023-05-23T00:40:02.093Z,11.57
2023-05-23T00:41:02.060Z,11.44
2023-05-23T00:42:02.084Z,11.52
2023-05-23T00:43:02.095Z,11.47
2023-05-23T00:44:02.090Z,11.52
2023-05-23T00:45:02.112Z,11.51
2023-05-23T00:46:02.139Z,11.51
2023-05-23T00:47:02.128Z,11.55
2023-05-23T00:48:02.226Z,11.57
2023-05-23T00:49:02.156Z,11.58
2023-05-23T00:50:02.163Z,11.57
2023-05-23T00:51:02.310Z,11.55
2023-05-23T00:52:02.198Z,11.55
2023-05-23T00:53:02.219Z,11.60
2023-05-23T00:54:02.227Z,11.47
2023-05-23T00:55:02.241Z,11.47
2023-05-23T00:56:02.247Z,11.46
2023-05-23T00:57:02.273Z,11.49
2023-05-23T00:58:02.272Z,11.49
2023-05-23T00:59:02.314Z,11.49
2023-05-23T01:00:02.305Z,11.46
2023-05-23T01:01:02.317Z,11.44
2023-05-23T01:02:02.355Z,11.47
2023-05-23T01:03:02.441Z,11.44
2023-05-23T01:04:02.495Z,11.44
2023-05-23T01:05:02.381Z,11.42
2023-05-23T01:06:02.408Z,11.37
2023-05-23T01:07:02.511Z,11.18
2023-05-23T01:08:02.409Z,11.17
2023-05-23T01:09:02.417Z,11.06
2023-05-23T01:10:02.435Z,11.11
2023-05-23T01:11:02.451Z,11.09
2023-05-23T01:12:02.458Z,11.11
2023-05-23T01:13:02.472Z,11.06
2023-05-23T01:14:02.479Z,11.09
2023-05-23T01:15:02.497Z,11.11
2023-05-23T01:16:03.210Z,11.07
2023-05-23T01:17:02.516Z,11.07
2023-05-23T01:18:02.561Z,11.10
2023-05-23T01:19:02.617Z,11.02
2023-05-23T01:20:02.560Z,11.00
2023-05-23T01:21:02.572Z,11.09
2023-05-23T01:22:02.578Z,11.00
2023-05-23T01:23:02.757Z,11.04
2023-05-23T01:24:02.642Z,11.07
2023-05-23T01:25:02.621Z,11.02
2023-05-23T01:26:02.674Z,11.07
2023-05-23T01:27:02.659Z,11.07
2023-05-23T01:28:02.671Z,11.06
2023-05-23T01:29:02.671Z,11.06
2023-05-23T01:30:02.695Z,11.25
2023-05-23T01:31:02.698Z,11.17
2023-05-23T01:32:02.861Z,11.21
2023-05-23T01:33:02.820Z,11.15
2023-05-23T01:34:02.741Z,11.17
2023-05-23T01:35:02.748Z,11.17
2023-05-23T01:36:02.757Z,11.11
2023-05-23T01:37:02.776Z,11.25
2023-05-23T01:38:02.786Z,11.15
2023-05-23T01:39:02.829Z,11.22
2023-05-23T01:40:02.828Z,11.18
2023-05-23T01:41:02.826Z,11.11
2023-05-23T01:42:02.840Z,11.14
2023-05-23T01:43:02.856Z,11.19
2023-05-23T01:44:02.865Z,11.15
2023-05-23T01:45:02.894Z,11.21
2023-05-23T01:46:02.908Z,11.15
2023-05-23T01:47:02.908Z,11.19
2023-05-23T01:48:02.955Z,11.14
2023-05-23T01:49:02.938Z,11.17
2023-05-23T01:50:02.944Z,11.17
2023-05-23T01:51:02.964Z,11.11
2023-05-23T01:52:02.978Z,11.14
2023-05-23T01:53:02.993Z,11.19
2023-05-23T01:54:02.994Z,11.14
2023-05-23T01:55:03.131Z,11.14
2023-05-23T01:56:03.022Z,11.10
2023-05-23T01:57:03.037Z,11.03
2023-05-23T01:58:03.060Z,11.04
2023-05-23T01:59:03.086Z,11.06
2023-05-23T02:00:03.076Z,11.06
2023-05-23T02:01:03.181Z,11.00
2023-05-23T02:02:03.117Z,11.02
2023-05-23T02:03:03.184Z,11.02
2023-05-23T02:04:03.127Z,11.02
2023-05-23T02:05:03.161Z,11.02
2023-05-23T02:06:03.160Z,11.02
2023-05-23T02:07:03.165Z,10.99
2023-05-23T02:08:03.184Z,11.03
2023-05-23T02:09:03.203Z,11.04
2023-05-23T02:10:03.208Z,11.04
2023-05-23T02:11:03.360Z,11.03
2023-05-23T02:12:03.228Z,10.99
2023-05-23T02:13:03.245Z,11.14
2023-05-23T02:14:03.255Z,10.99
2023-05-23T02:15:03.272Z,11.07
2023-05-23T02:16:03.281Z,11.04
2023-05-23T02:17:03.319Z,11.04
2023-05-23T02:18:03.399Z,11.04
2023-05-23T02:19:03.344Z,11.02
2023-05-23T02:20:03.334Z,11.07
2023-05-23T02:21:03.349Z,11.07
2023-05-23T02:22:03.360Z,11.00
2023-05-23T02:23:03.379Z,11.02
2023-05-23T02:24:03.400Z,11.04
2023-05-23T02:25:03.398Z,11.04
2023-05-23T02:26:03.412Z,11.03
2023-05-23T02:27:03.906Z,11.09
2023-05-23T02:28:03.444Z,11.11
2023-05-23T02:29:03.452Z,11.04
2023-05-23T02:30:03.476Z,11.10
2023-05-23T02:31:03.588Z,11.10
2023-05-23T02:32:03.487Z,11.07
2023-05-23T02:33:03.568Z,10.99
2023-05-23T02:34:03.515Z,11.00
2023-05-23T02:35:03.540Z,11.02
2023-05-23T02:36:03.543Z,10.99
2023-05-23T02:37:03.557Z,10.97
2023-05-23T02:38:03.563Z,11.02
2023-05-23T02:39:03.585Z,10.92
2023-05-23T02:40:03.590Z,10.91
2023-05-23T02:41:03.613Z,11.02
2023-05-23T02:42:03.613Z,10.96
2023-05-23T02:43:03.752Z,10.91
2023-05-23T02:44:03.641Z,10.99
2023-05-23T02:45:03.655Z,11.04
2023-05-23T02:46:03.694Z,11.06
2023-05-23T02:47:03.697Z,10.96
2023-05-23T02:48:03.768Z,11.06
2023-05-23T02:49:03.712Z,11.02
2023-05-23T02:50:03.733Z,10.96
2023-05-23T02:51:03.741Z,11.06
2023-05-23T02:52:03.751Z,11.04
2023-05-23T02:53:03.755Z,10.99
2023-05-23T02:54:03.771Z,11.00
2023-05-23T02:55:03.783Z,10.92
2023-05-23T02:56:03.795Z,11.02
2023-05-23T02:57:03.808Z,10.91
2023-05-23T02:58:03.817Z,10.92
2023-05-23T02:59:03.949Z,10.82
2023-05-23T03:00:03.848Z,10.81
2023-05-23T03:01:05.829Z,10.86
2023-05-23T03:02:03.959Z,10.82
2023-05-23T03:03:03.938Z,10.85
2023-05-23T03:04:03.975Z,10.85
2023-05-23T03:05:03.912Z,10.76
2023-05-23T03:06:03.913Z,10.73
2023-05-23T03:07:05.358Z,10.76
2023-05-23T03:08:03.943Z,10.79
2023-05-23T03:09:03.992Z,10.82
2023-05-23T03:10:03.969Z,10.79
2023-05-23T03:11:03.986Z,10.71
2023-05-23T03:12:03.993Z,10.81
2023-05-23T03:13:04.011Z,10.85
2023-05-23T03:14:04.017Z,10.82
2023-05-23T03:15:04.161Z,10.81
2023-05-23T03:16:04.079Z,10.76
2023-05-23T03:17:04.067Z,10.81
2023-05-23T03:18:04.121Z,10.73
2023-05-23T03:19:04.092Z,10.73
2023-05-23T03:20:04.093Z,10.76
2023-05-23T03:21:04.109Z,10.79
2023-05-23T03:22:04.119Z,10.79
2023-05-23T03:23:04.130Z,10.78
2023-05-23T03:24:04.141Z,10.68
2023-05-23T03:25:04.162Z,10.68
2023-05-23T03:26:04.193Z,10.79
2023-05-23T03:27:04.180Z,10.79
2023-05-23T03:28:04.193Z,10.74
2023-05-23T03:29:04.208Z,10.82
2023-05-23T03:30:04.221Z,10.81
2023-05-23T03:31:04.389Z,10.79
2023-05-23T03:32:04.283Z,10.78
2023-05-23T03:33:04.332Z,10.73
2023-05-23T03:34:04.277Z,10.79
2023-05-23T03:35:04.282Z,10.85
2023-05-23T03:36:04.294Z,10.71
2023-05-23T03:37:04.318Z,10.84
2023-05-23T03:38:04.335Z,10.73
2023-05-23T03:39:04.333Z,10.78
2023-05-23T03:40:04.345Z,10.81
2023-05-23T03:41:04.363Z,10.78
2023-05-23T03:42:04.378Z,10.78
2023-05-23T03:43:04.415Z,10.76
2023-05-23T03:44:04.405Z,10.76
2023-05-23T03:45:04.405Z,10.79
2023-05-23T03:46:04.434Z,10.76
2023-05-23T03:47:04.451Z,10.82
2023-05-23T03:48:04.538Z,10.73
2023-05-23T03:49:04.460Z,10.84
2023-05-23T03:50:04.471Z,10.73
2023-05-23T03:51:04.485Z,10.74
2023-05-23T03:52:04.501Z,10.81
2023-05-23T03:53:04.507Z,10.76
2023-05-23T03:54:04.525Z,10.78
2023-05-23T03:55:04.651Z,10.79
2023-05-23T03:56:04.558Z,10.78
2023-05-23T03:57:04.563Z,10.78
2023-05-23T03:58:04.567Z,10.78
2023-05-23T03:59:04.585Z,10.79
2023-05-23T04:00:04.599Z,10.71
2023-05-23T04:01:04.661Z,10.79
2023-05-23T04:02:04.668Z,10.81
2023-05-23T04:03:04.881Z,10.76
2023-05-23T04:04:04.733Z,10.85
2023-05-23T04:05:04.657Z,10.76
2023-05-23T04:06:04.694Z,10.79
2023-05-23T04:07:04.684Z,10.74
2023-05-23T04:08:04.696Z,10.78
2023-05-23T04:09:04.710Z,10.76
2023-05-23T04:10:04.729Z,10.73
2023-05-23T04:11:04.737Z,10.68
2023-05-23T04:12:04.760Z,10.67
2023-05-23T04:13:04.772Z,10.68
2023-05-23T04:14:04.784Z,10.70
2023-05-23T04:15:04.786Z,10.84
2023-05-23T04:16:04.841Z,10.82
2023-05-23T04:17:04.808Z,10.78
2023-05-23T04:18:04.882Z,10.78
2023-05-23T04:19:05.790Z,10.73
2023-05-23T04:20:04.866Z,10.76
2023-05-23T04:21:04.861Z,10.81
2023-05-23T04:22:04.873Z,10.76
2023-05-23T04:23:04.887Z,10.74
2023-05-23T04:24:04.898Z,10.78
2023-05-23T04:25:04.911Z,10.76
2023-05-23T04:26:04.923Z,10.78
2023-05-23T04:27:04.945Z,10.76
2023-05-23T04:28:04.949Z,10.71
2023-05-23T04:29:04.966Z,10.68
2023-05-23T04:30:04.980Z,10.68
2023-05-23T04:31:05.030Z,10.66
2023-05-23T04:32:05.006Z,10.61
2023-05-23T04:33:05.049Z,10.64
2023-05-23T04:34:05.026Z,10.56
2023-05-23T04:35:05.192Z,10.59
2023-05-23T04:36:05.061Z,10.66
2023-05-23T04:37:05.075Z,10.52
2023-05-23T04:38:05.081Z,10.51
2023-05-23T04:39:05.099Z,10.48
2023-05-23T04:40:05.113Z,10.55
2023-05-23T04:41:05.127Z,10.44
2023-05-23T04:42:05.129Z,10.45
2023-05-23T04:43:05.149Z,10.55
2023-05-23T04:44:05.153Z,10.47
2023-05-23T04:45:05.171Z,10.55
2023-05-23T04:46:05.181Z,10.56
2023-05-23T04:47:05.296Z,10.66
2023-05-23T04:48:05.213Z,10.53
2023-05-23T04:49:05.225Z,10.55
2023-05-23T04:50:05.234Z,10.74
2023-05-23T04:51:05.363Z,10.67
2023-05-23T04:52:05.250Z,10.67
2023-05-23T04:53:05.265Z,10.66
2023-05-23T04:54:05.286Z,10.66
2023-05-23T04:55:05.307Z,10.66
2023-05-23T04:56:05.300Z,10.64
2023-05-23T04:57:05.322Z,10.66
2023-05-23T04:58:05.337Z,10.79
2023-05-23T04:59:05.348Z,10.71
2023-05-23T05:00:05.357Z,10.70
2023-05-23T05:01:05.431Z,10.66
2023-05-23T05:02:05.402Z,10.64
2023-05-23T05:03:05.433Z,10.67
2023-05-23T05:04:05.418Z,10.79
2023-05-23T05:05:05.415Z,10.66
2023-05-23T05:06:05.425Z,10.79
2023-05-23T05:07:05.556Z,10.78
2023-05-23T05:08:05.449Z,10.79
2023-05-23T05:09:05.466Z,10.79
2023-05-23T05:10:05.489Z,10.81
2023-05-23T05:11:05.494Z,10.82
2023-05-23T05:12:05.500Z,10.73
2023-05-23T05:13:05.512Z,10.71
2023-05-23T05:14:05.525Z,10.67
2023-05-23T05:15:05.534Z,10.73
2023-05-23T05:16:05.563Z,10.70
2023-05-23T05:17:05.598Z,10.64
2023-05-23T05:18:05.602Z,10.68
2023-05-23T05:19:05.636Z,10.66
2023-05-23T05:20:05.598Z,10.67
2023-05-23T05:21:05.607Z,10.78
2023-05-23T05:22:05.620Z,10.81
2023-05-23T05:23:05.652Z,10.79
2023-05-23T05:24:05.654Z,10.84
2023-05-23T05:25:05.654Z,10.76
2023-05-23T05:26:05.676Z,10.74
2023-05-23T05:27:05.683Z,10.81
2023-05-23T05:28:05.696Z,10.78
2023-05-23T05:29:05.710Z,10.76
2023-05-23T05:30:05.725Z,10.84
2023-05-23T05:31:05.794Z,10.85
2023-05-23T05:32:05.741Z,10.88
2023-05-23T05:33:05.777Z,10.89
2023-05-23T05:34:05.777Z,10.96
2023-05-23T05:35:05.780Z,10.94
2023-05-23T05:36:05.798Z,10.92
2023-05-23T05:37:05.809Z,11.02
2023-05-23T05:38:05.828Z,10.99
2023-05-23T05:39:05.959Z,11.00
2023-05-23T05:40:05.846Z,10.99
2023-05-23T05:41:08.036Z,11.10
2023-05-23T05:42:05.874Z,11.10
2023-05-23T05:43:05.888Z,11.10
2023-05-23T05:44:05.899Z,11.17
2023-05-23T05:45:05.906Z,11.17
2023-05-23T05:46:05.955Z,11.25
2023-05-23T05:47:05.930Z,11.28
2023-05-23T05:48:05.967Z,11.33
2023-05-23T05:49:05.956Z,11.36
2023-05-23T05:50:05.970Z,11.36
2023-05-23T05:51:06.015Z,11.42
2023-05-23T05:52:05.997Z,11.42
2023-05-23T05:53:06.009Z,11.43
2023-05-23T05:54:06.029Z,11.52
2023-05-23T05:55:06.153Z,11.58
2023-05-23T05:56:06.063Z,11.55
2023-05-23T05:57:06.076Z,11.57
2023-05-23T05:58:06.077Z,11.62
2023-05-23T05:59:06.084Z,11.61
2023-05-23T06:00:06.114Z,11.64
2023-05-23T06:01:06.122Z,11.65
2023-05-23T06:02:06.132Z,11.73
2023-05-23T06:03:06.251Z,11.67
2023-05-23T06:04:06.495Z,11.73
2023-05-23T06:05:06.183Z,11.73
2023-05-23T06:06:06.185Z,11.79
2023-05-23T06:07:06.192Z,11.76
2023-05-23T06:08:06.207Z,11.78
2023-05-23T06:09:06.214Z,11.85
2023-05-23T06:10:06.236Z,11.75
2023-05-23T06:11:06.259Z,11.78
2023-05-23T06:12:06.258Z,11.78
2023-05-23T06:13:06.270Z,11.73
2023-05-23T06:14:06.282Z,11.75
2023-05-23T06:15:06.292Z,11.80
2023-05-23T06:16:06.343Z,11.72
2023-05-23T06:17:06.316Z,11.82
2023-05-23T06:18:06.394Z,11.72
2023-05-23T06:19:06.452Z,11.80
2023-05-23T06:20:06.356Z,11.75
2023-05-23T06:21:06.381Z,11.82
2023-05-23T06:22:06.433Z,11.72
2023-05-23T06:23:06.431Z,11.85
2023-05-23T06:24:06.410Z,11.86
2023-05-23T06:25:06.427Z,11.86
2023-05-23T06:26:06.443Z,11.85
2023-05-23T06:27:06.563Z,11.82
2023-05-23T06:28:06.466Z,11.85
2023-05-23T06:29:06.528Z,11.88
2023-05-23T06:30:06.493Z,11.86
2023-05-23T06:31:06.499Z,11.90
2023-05-23T06:32:06.597Z,11.85
2023-05-23T06:33:06.605Z,11.91
2023-05-23T06:34:06.560Z,11.95
2023-05-23T06:35:06.549Z,11.95
2023-05-23T06:36:06.567Z,11.90
2023-05-23T06:37:06.582Z,11.94
2023-05-23T06:38:06.602Z,11.88
2023-05-23T06:39:06.601Z,11.96
2023-05-23T06:40:06.623Z,12.05
2023-05-23T06:41:06.629Z,12.02
2023-05-23T06:42:06.648Z,12.04
2023-05-23T06:43:06.797Z,12.05
2023-05-23T06:44:06.680Z,12.02
2023-05-23T06:45:06.683Z,12.10
2023-05-23T06:46:06.846Z,12.16
2023-05-23T06:47:06.714Z,12.19
2023-05-23T06:48:06.734Z,12.17
2023-05-23T06:49:14.775Z,12.09
2023-05-23T06:50:06.767Z,12.12
2023-05-23T06:51:06.819Z,12.19
2023-05-23T06:52:06.795Z,12.14
2023-05-23T06:53:06.795Z,12.19
2023-05-23T06:54:06.839Z,12.24
2023-05-23T06:55:06.826Z,12.32
2023-05-23T06:56:06.832Z,12.31
2023-05-23T06:57:06.841Z,12.41
2023-05-23T06:58:06.861Z,12.47
2023-05-23T06:59:06.993Z,12.50
2023-05-23T07:00:06.890Z,12.47
2023-05-23T07:01:06.936Z,12.49
2023-05-23T07:02:06.911Z,12.47
2023-05-23T07:03:06.920Z,12.46
2023-05-23T07:04:06.937Z,12.39
2023-05-23T07:05:07.056Z,12.29
2023-05-23T07:06:06.964Z,12.28
2023-05-23T07:07:06.972Z,12.27
2023-05-23T07:08:06.998Z,12.27
2023-05-23T07:09:07.000Z,12.31
2023-05-23T07:10:07.026Z,12.41
2023-05-23T07:11:07.089Z,12.56
2023-05-23T07:12:07.042Z,12.53
2023-05-23T07:13:07.053Z,12.50
2023-05-23T07:14:07.068Z,12.54
2023-05-23T07:15:07.210Z,12.54
2023-05-23T07:16:07.096Z,12.62
2023-05-23T07:17:07.115Z,12.82
2023-05-23T07:18:07.136Z,12.71
2023-05-23T07:19:07.229Z,12.79
2023-05-23T07:20:07.172Z,12.79
2023-05-23T07:21:07.162Z,12.78
2023-05-23T07:22:07.175Z,12.89
2023-05-23T07:23:07.207Z,12.87
2023-05-23T07:24:07.200Z,12.86
2023-05-23T07:25:07.213Z,13.00
2023-05-23T07:26:07.234Z,12.92
2023-05-23T07:27:07.239Z,13.01
2023-05-23T07:28:07.255Z,13.12
2023-05-23T07:29:07.293Z,13.11
2023-05-23T07:30:07.282Z,13.10
2023-05-23T07:31:07.381Z,13.25
2023-05-23T07:32:07.308Z,13.12
2023-05-23T07:33:07.413Z,13.22
2023-05-23T07:34:07.350Z,13.22
2023-05-23T07:35:07.355Z,13.20
2023-05-23T07:36:07.390Z,13.19
2023-05-23T07:37:07.393Z,13.30
2023-05-23T07:38:07.406Z,13.30
2023-05-23T07:39:07.395Z,13.33
2023-05-23T07:40:07.413Z,13.39
2023-05-23T07:41:12.066Z,13.44
2023-05-23T07:42:07.450Z,13.60
2023-05-23T07:43:07.450Z,13.63
2023-05-23T07:44:07.471Z,13.44
2023-05-23T07:45:07.477Z,13.54
2023-05-23T07:46:07.540Z,13.48
2023-05-23T07:47:08.020Z,13.60
2023-05-23T07:48:07.577Z,13.67
2023-05-23T07:49:07.541Z,13.73
2023-05-23T07:50:07.550Z,13.70
2023-05-23T07:51:07.558Z,13.85
2023-05-23T07:52:07.590Z,13.84
2023-05-23T07:53:07.586Z,14.00
2023-05-23T07:54:07.625Z,14.02
2023-05-23T07:55:07.618Z,14.07
2023-05-23T07:56:07.629Z,14.14
2023-05-23T07:57:07.637Z,13.99
2023-05-23T07:58:07.655Z,14.09
2023-05-23T07:59:07.670Z,14.07
2023-05-23T08:00:07.727Z,13.87
2023-05-23T08:01:07.692Z,13.84
2023-05-23T08:02:07.798Z,14.03
2023-05-23T08:03:07.806Z,14.02
2023-05-23T08:04:07.803Z,14.07
2023-05-23T08:05:07.751Z,14.02
2023-05-23T08:06:07.773Z,13.95
2023-05-23T08:07:07.771Z,13.96
2023-05-23T08:08:07.795Z,13.89
2023-05-23T08:09:07.817Z,13.84
2023-05-23T08:10:07.819Z,13.89
2023-05-23T08:11:07.853Z,14.12
2023-05-23T08:12:07.848Z,14.14
2023-05-23T08:13:07.859Z,14.36
2023-05-23T08:14:07.901Z,14.46
2023-05-23T08:15:07.894Z,14.51
2023-05-23T08:16:07.963Z,14.55
2023-05-23T08:17:07.991Z,14.61
2023-05-23T08:18:08.124Z,14.32
2023-05-23T08:19:08.072Z,14.35
2023-05-23T08:20:08.894Z,14.28
2023-05-23T08:21:07.984Z,14.33
2023-05-23T08:22:07.988Z,14.28
2023-05-23T08:23:07.998Z,14.58
2023-05-23T08:24:08.015Z,14.68
2023-05-23T08:25:08.028Z,14.80
2023-05-23T08:26:08.052Z,15.06
2023-05-23T08:27:08.141Z,14.70
2023-05-23T08:28:08.076Z,14.69
2023-05-23T08:29:08.081Z,14.84
2023-05-23T08:30:08.104Z,14.81
2023-05-23T08:31:08.126Z,14.96
2023-05-23T08:32:08.174Z,14.95
2023-05-23T08:33:08.226Z,14.77
2023-05-23T08:34:08.154Z,14.94
2023-05-23T08:35:08.187Z,15.01
2023-05-23T08:36:08.188Z,15.06
2023-05-23T08:37:08.196Z,15.16
2023-05-23T08:38:08.214Z,15.17
2023-05-23T08:39:08.225Z,15.06
2023-05-23T08:40:08.240Z,14.98
2023-05-23T08:41:08.251Z,14.92
2023-05-23T08:42:08.277Z,14.88
2023-05-23T08:43:08.343Z,14.55
2023-05-23T08:44:08.298Z,14.70
2023-05-23T08:45:08.313Z,14.83
2023-05-23T08:46:08.371Z,14.91
2023-05-23T08:47:08.346Z,15.20
2023-05-23T08:48:08.414Z,15.07
2023-05-23T08:49:08.362Z,15.16
2023-05-23T08:50:08.432Z,15.38
2023-05-23T08:51:08.410Z,15.65
2023-05-23T08:52:08.438Z,15.65
2023-05-23T08:53:08.422Z,15.80
2023-05-23T08:54:08.432Z,15.54
2023-05-23T08:55:08.446Z,15.60
2023-05-23T08:56:08.464Z,15.60
2023-05-23T08:57:08.471Z,15.51
2023-05-23T08:58:08.489Z,15.16
2023-05-23T08:59:08.500Z,15.11
2023-05-23T09:00:08.518Z,14.99
2023-05-23T09:01:08.609Z,15.17
2023-05-23T09:02:08.556Z,15.31
2023-05-23T09:03:08.660Z,15.43
2023-05-23T09:04:08.578Z,15.17
2023-05-23T09:05:08.632Z,15.35
2023-05-23T09:06:08.602Z,15.35
2023-05-23T09:07:08.659Z,15.39
2023-05-23T09:08:08.630Z,15.39
2023-05-23T09:09:08.655Z,15.51
2023-05-23T09:10:08.662Z,15.47
2023-05-23T09:11:08.672Z,15.56
2023-05-23T09:12:08.707Z,15.67
2023-05-23T09:13:08.713Z,15.80
2023-05-23T09:14:08.719Z,15.89
2023-05-23T09:15:08.733Z,15.92
2023-05-23T09:16:08.764Z,15.86
2023-05-23T09:17:08.776Z,16.02
2023-05-23T09:18:08.785Z,16.20
2023-05-23T09:19:08.848Z,16.35
2023-05-23T09:20:08.819Z,16.61
2023-05-23T09:21:08.818Z,16.82
2023-05-23T09:22:08.840Z,16.70
2023-05-23T09:23:08.875Z,16.46
2023-05-23T09:24:08.866Z,16.42
2023-05-23T09:25:08.896Z,16.79
2023-05-23T09:26:08.896Z,17.11
2023-05-23T09:27:08.920Z,17.33
2023-05-23T09:28:08.935Z,17.36
2023-05-23T09:29:08.949Z,17.04
2023-05-23T09:30:08.969Z,16.76
2023-05-23T09:31:09.028Z,16.75
2023-05-23T09:32:08.997Z,16.81
2023-05-23T09:33:09.091Z,16.94
2023-05-23T09:34:09.032Z,16.82
2023-05-23T09:35:09.043Z,16.58
2023-05-23T09:36:09.061Z,16.64
2023-05-23T09:37:09.074Z,16.46
2023-05-23T09:38:09.088Z,16.50
2023-05-23T09:39:09.128Z,16.33
2023-05-23T09:40:09.144Z,16.20
2023-05-23T09:41:09.164Z,16.33
2023-05-23T09:42:09.149Z,16.42
2023-05-23T09:43:09.167Z,16.53
2023-05-23T09:44:09.227Z,16.82
2023-05-23T09:45:09.211Z,16.81
2023-05-23T09:46:09.212Z,17.06
2023-05-23T09:47:09.307Z,17.48
2023-05-23T09:48:09.296Z,17.55
2023-05-23T09:49:09.269Z,17.52
2023-05-23T09:50:09.274Z,17.46
2023-05-23T09:51:09.301Z,17.48
2023-05-23T09:52:09.303Z,17.52
2023-05-23T09:53:09.324Z,17.66
2023-05-23T09:54:09.339Z,17.68
2023-05-23T09:55:09.434Z,17.82
2023-05-23T09:56:09.377Z,17.82
2023-05-23T09:57:09.669Z,17.87
2023-05-23T09:58:09.401Z,17.74
2023-05-23T09:59:09.429Z,17.51
2023-05-23T10:00:09.435Z,17.36
2023-05-23T10:01:09.481Z,17.87
2023-05-23T10:02:09.472Z,17.74
2023-05-23T10:03:09.533Z,17.51
2023-05-23T10:04:09.521Z,17.46
2023-05-23T10:05:09.525Z,17.56
2023-05-23T10:06:09.568Z,17.66
2023-05-23T10:07:09.550Z,17.84
2023-05-23T10:08:09.575Z,17.52
2023-05-23T10:09:09.580Z,17.31
2023-05-23T10:10:09.604Z,17.52
2023-05-23T10:11:09.646Z,17.74
2023-05-23T10:12:09.633Z,17.95
2023-05-23T10:13:09.644Z,17.92
2023-05-23T10:14:09.675Z,17.72
2023-05-23T10:15:09.696Z,17.52
2023-05-23T10:16:09.685Z,17.58
2023-05-23T10:17:09.836Z,17.64
2023-05-23T10:18:09.753Z,17.70
2023-05-23T10:19:09.786Z,17.66
2023-05-23T10:20:09.754Z,17.79
2023-05-23T10:21:09.777Z,17.90
2023-05-23T10:22:09.786Z,18.11
2023-05-23T10:23:09.807Z,18.18
2023-05-23T10:24:09.819Z,17.93
2023-05-23T10:25:09.838Z,17.48
2023-05-23T10:26:09.868Z,17.44
2023-05-23T10:27:09.898Z,17.66
2023-05-23T10:28:09.884Z,17.63
2023-05-23T10:29:09.899Z,17.97
2023-05-23T10:30:09.932Z,18.02
2023-05-23T10:31:09.993Z,17.77
2023-05-23T10:32:09.955Z,17.44
2023-05-23T10:33:09.970Z,17.86
2023-05-23T10:34:09.982Z,18.15
2023-05-23T10:35:10.004Z,18.45
2023-05-23T10:36:10.095Z,18.50
2023-05-23T10:37:10.038Z,18.95
2023-05-23T10:38:10.050Z,18.78
2023-05-23T10:39:10.071Z,18.82
2023-05-23T10:40:10.089Z,19.16
2023-05-23T10:41:10.107Z,19.25
2023-05-23T10:42:10.123Z,19.40
2023-05-23T10:43:10.158Z,19.48
2023-05-23T10:44:10.173Z,19.22
2023-05-23T10:45:10.184Z,19.23
2023-05-23T10:46:10.277Z,19.40
2023-05-23T10:47:10.250Z,19.41
2023-05-23T10:48:10.227Z,18.78
2023-05-23T10:49:10.238Z,18.78
2023-05-23T10:50:10.258Z,18.91
2023-05-23T10:51:10.284Z,19.14
2023-05-23T10:52:10.289Z,19.29
2023-05-23T10:53:10.307Z,19.18
2023-05-23T10:54:10.361Z,19.26
2023-05-23T10:55:10.346Z,19.19
2023-05-23T10:56:10.367Z,19.14
2023-05-23T10:57:10.394Z,19.28
2023-05-23T10:58:10.397Z,19.61
2023-05-23T10:59:10.435Z,19.66
2023-05-23T11:00:10.439Z,19.83
2023-05-23T11:01:10.473Z,19.25
2023-05-23T11:02:10.498Z,19.10
2023-05-23T11:03:10.547Z,18.88
2023-05-23T11:04:10.537Z,19.02
2023-05-23T11:05:10.524Z,18.54
2023-05-23T11:06:10.592Z,18.85
2023-05-23T11:07:10.562Z,18.72
2023-05-23T11:08:10.579Z,19.18
2023-05-23T11:09:10.605Z,19.18
2023-05-23T11:10:10.614Z,19.31
2023-05-23T11:11:10.640Z,19.51
2023-05-23T11:12:10.654Z,19.68
2023-05-23T11:13:10.666Z,19.43
2023-05-23T11:14:10.682Z,19.16
2023-05-23T11:15:10.752Z,18.84
2023-05-23T11:16:10.738Z,18.70
2023-05-23T11:17:10.741Z,18.67
2023-05-23T11:18:10.807Z,18.84
2023-05-23T11:19:10.801Z,18.30
2023-05-23T11:20:10.804Z,18.07
2023-05-23T11:21:10.815Z,18.25
2023-05-23T11:22:10.828Z,18.47
2023-05-23T11:23:10.858Z,18.88
2023-05-23T11:24:10.861Z,18.87
2023-05-23T11:25:10.949Z,19.02
2023-05-23T11:26:10.898Z,18.88
2023-05-23T11:27:10.947Z,18.80
2023-05-23T11:28:10.970Z,18.92
2023-05-23T11:29:10.969Z,18.50
2023-05-23T11:30:10.971Z,19.02
2023-05-23T11:31:11.013Z,18.39
2023-05-23T11:32:15.110Z,18.69
2023-05-23T11:33:11.089Z,18.91
2023-05-23T11:34:11.046Z,18.76
2023-05-23T11:35:11.085Z,18.82
2023-05-23T11:36:11.091Z,18.98
2023-05-23T11:37:11.117Z,19.31
2023-05-23T11:38:11.146Z,19.76
2023-05-23T11:39:11.171Z,19.78
2023-05-23T11:40:11.156Z,19.81
2023-05-23T11:41:11.181Z,19.61
2023-05-23T11:42:11.190Z,19.21
2023-05-23T11:43:11.224Z,19.41
2023-05-23T11:44:11.229Z,19.84
2023-05-23T11:45:11.246Z,19.50
2023-05-23T11:46:11.296Z,19.46
2023-05-23T11:47:11.301Z,19.33
2023-05-23T11:48:11.298Z,19.10
2023-05-23T11:49:11.327Z,19.28
2023-05-23T11:50:11.375Z,19.44
2023-05-23T11:51:11.357Z,19.28
2023-05-23T11:52:11.372Z,19.43
2023-05-23T11:53:11.401Z,19.84
2023-05-23T11:54:11.407Z,19.86
2023-05-23T11:55:11.427Z,19.96
2023-05-23T11:56:11.450Z,19.48
2023-05-23T11:57:11.484Z,19.46
2023-05-23T11:58:11.494Z,19.21
2023-05-23T11:59:11.501Z,19.26
2023-05-23T12:00:11.563Z,19.29
2023-05-23T12:01:11.552Z,19.47
2023-05-23T12:02:11.620Z,19.55
2023-05-23T12:03:11.784Z,19.65
2023-05-23T12:04:11.764Z,19.41
2023-05-23T12:05:11.627Z,19.83
2023-05-23T12:06:14.021Z,19.71
2023-05-23T12:07:11.690Z,19.41
2023-05-23T12:08:11.676Z,19.41
2023-05-23T12:09:11.721Z,19.41
2023-05-23T12:10:11.784Z,19.91
2023-05-23T12:11:11.721Z,18.70
2023-05-23T12:12:11.745Z,19.26
2023-05-23T12:13:11.757Z,19.48
2023-05-23T12:14:11.774Z,19.91
2023-05-23T12:15:11.805Z,19.80
2023-05-23T12:16:11.831Z,19.80
2023-05-23T12:17:11.830Z,19.83
2023-05-23T12:18:11.861Z,19.41
2023-05-23T12:19:11.972Z,19.76
2023-05-23T12:20:11.897Z,19.69
2023-05-23T12:21:11.947Z,19.74
2023-05-23T12:22:11.919Z,20.01
2023-05-23T12:23:11.943Z,20.13
2023-05-23T12:24:11.956Z,20.03
2023-05-23T12:25:11.989Z,20.28
2023-05-23T12:26:12.011Z,20.33
2023-05-23T12:27:12.014Z,20.48
2023-05-23T12:28:12.029Z,20.17
2023-05-23T12:29:12.057Z,20.57
2023-05-23T12:30:12.073Z,20.51
2023-05-23T12:31:12.340Z,20.28
2023-05-23T12:32:12.109Z,19.95
2023-05-23T12:33:12.128Z,19.94
2023-05-23T12:34:12.145Z,19.76
2023-05-23T12:35:12.201Z,19.94
2023-05-23T12:36:12.196Z,19.81
2023-05-23T12:37:19.754Z,19.80
2023-05-23T12:38:12.222Z,19.81
2023-05-23T12:39:12.243Z,20.11
2023-05-23T12:40:12.260Z,20.55
2023-05-23T12:41:12.283Z,20.55
2023-05-23T12:42:12.304Z,21.04
2023-05-23T12:43:12.316Z,20.48
2023-05-23T12:44:12.332Z,20.55
2023-05-23T12:45:12.362Z,20.52
2023-05-23T12:46:12.373Z,20.69
2023-05-23T12:47:12.437Z,20.95
2023-05-23T12:48:12.459Z,20.64
2023-05-23T12:49:12.441Z,21.04
2023-05-23T12:50:12.484Z,20.89
2023-05-23T12:51:12.493Z,20.84
2023-05-23T12:52:12.484Z,20.69